createdAt,value
2022-11-20T00:01:38.324Z,99988.38
2022-11-20T00:04:06.549Z,99983.63
2022-11-20T00:06:34.570Z,99992.94
2022-11-20T00:09:02.927Z,99986.66
2022-11-20T00:11:32.768Z,99994.56
2022-11-20T00:14:03.178Z,99995.22
2022-11-20T00:16:34.758Z,99986.66
2022-11-20T00:19:02.876Z,99990.19
2022-11-20T00:21:31.787Z,99995.47
2022-11-20T00:24:00.302Z,99994.25
2022-11-20T00:26:29.771Z,99989.41
2022-11-20T00:29:00.510Z,100001.78
2022-11-20T00:31:30.023Z,99990.44
2022-11-20T00:33:58.857Z,100004.97
2022-11-20T00:36:29.439Z,100009.84
2022-11-20T00:38:59.912Z,100011.56
2022-11-20T00:41:30.298Z,100016.50
2022-11-20T00:43:59.078Z,100019.28
2022-11-20T00:46:29.203Z,100014.41
2022-11-20T00:48:58.295Z,100015.69
2022-11-20T00:51:27.987Z,100023.03
2022-11-20T00:53:58.282Z,100019.41
2022-11-20T00:56:26.611Z,100025.19
2022-11-20T00:58:55.569Z,100020.66
2022-11-20T01:01:26.615Z,100018.53
2022-11-20T01:03:58.337Z,100023.44
2022-11-20T01:06:28.100Z,100012.81
2022-11-20T01:08:59.557Z,100015.00
2022-11-20T01:11:36.317Z,100008.25
2022-11-20T01:14:08.048Z,100022.38
2022-11-20T01:16:38.847Z,100019.44
2022-11-20T01:19:12.897Z,100016.88
2022-11-20T01:21:45.645Z,100023.06
2022-11-20T01:24:17.299Z,100021.72
2022-11-20T01:26:48.375Z,100014.69
2022-11-20T01:29:23.341Z,100019.34
2022-11-20T01:31:53.705Z,100020.19
2022-11-20T01:34:23.716Z,100019.13
2022-11-20T01:36:53.960Z,100022.38
2022-11-20T01:39:25.344Z,100022.28
2022-11-20T01:42:13.307Z,100027.88
2022-11-20T01:44:56.676Z,100027.19
2022-11-20T01:47:37.026Z,100025.94
2022-11-20T01:50:15.765Z,100027.81
2022-11-20T01:53:00.786Z,100027.06
2022-11-20T01:55:33.699Z,100032.22
2022-11-20T01:58:03.020Z,100025.31
2022-11-20T02:00:32.109Z,100024.59
2022-11-20T02:03:05.019Z,100031.53
2022-11-20T02:05:35.850Z,100022.19
2022-11-20T02:08:06.823Z,100025.53
2022-11-20T02:10:35.790Z,100022.50
2022-11-20T02:13:23.836Z,100022.19
2022-11-20T02:15:53.079Z,100012.50
2022-11-20T02:18:22.284Z,100014.38
2022-11-20T02:20:58.958Z,100028.78
2022-11-20T02:23:33.049Z,100026.25
2022-11-20T02:26:05.551Z,100018.31
2022-11-20T02:28:34.361Z,100023.16
2022-11-20T02:31:02.629Z,100017.97
2022-11-20T02:33:30.550Z,100017.78
2022-11-20T02:35:58.791Z,100018.97
2022-11-20T02:38:26.751Z,100019.56
2022-11-20T02:40:55.795Z,100027.41
2022-11-20T02:43:24.813Z,100027.72
2022-11-20T02:45:53.006Z,100026.13
2022-11-20T02:48:20.780Z,100028.03
2022-11-20T02:50:50.130Z,100027.69
2022-11-20T02:53:17.872Z,100031.31
2022-11-20T02:55:46.040Z,100028.69
2022-11-20T02:58:13.869Z,100031.19
2022-11-20T03:00:42.082Z,100027.28
2022-11-20T03:03:09.923Z,100026.03
2022-11-20T03:05:39.430Z,100019.91
2022-11-20T03:08:07.391Z,100024.13
2022-11-20T03:10:35.621Z,100023.69
2022-11-20T03:13:03.499Z,100029.94
2022-11-20T03:15:32.061Z,100029.47
2022-11-20T03:18:00.030Z,100031.50
2022-11-20T03:20:28.259Z,100026.50
2022-11-20T03:22:56.661Z,100023.69
2022-11-20T03:25:25.077Z,100029.63
2022-11-20T03:27:53.040Z,100030.88
2022-11-20T03:30:21.260Z,100038.09
2022-11-20T03:32:49.660Z,100033.25
2022-11-20T03:35:17.793Z,100036.50
2022-11-20T03:37:47.102Z,100033.09
2022-11-20T03:40:15.389Z,100044.03
2022-11-20T03:42:46.170Z,100040.75
2022-11-20T03:45:19.152Z,100042.13
2022-11-20T03:47:47.830Z,100040.75
2022-11-20T03:50:16.272Z,100045.44
2022-11-20T03:52:44.182Z,100052.31
2022-11-20T03:55:12.483Z,100053.41
2022-11-20T03:57:40.348Z,100060.66
2022-11-20T04:00:10.492Z,100067.34
2022-11-20T04:02:38.320Z,100072.53
2022-11-20T04:05:07.050Z,100077.06
2022-11-20T04:07:35.892Z,100070.81
2022-11-20T04:10:04.539Z,100080.81
2022-11-20T04:12:35.912Z,100081.75
2022-11-20T04:15:04.400Z,100081.75
2022-11-20T04:17:32.220Z,100076.69
2022-11-20T04:20:01.072Z,100080.81
2022-11-20T04:22:29.013Z,100074.94
2022-11-20T04:24:57.221Z,100079.13
2022-11-20T04:27:25.101Z,100086.72
2022-11-20T04:29:53.241Z,100083.56
2022-11-20T04:32:21.069Z,100079.06
2022-11-20T04:34:49.461Z,100072.69
2022-11-20T04:37:18.179Z,100075.09
2022-11-20T04:39:47.029Z,100070.72
2022-11-20T04:42:30.140Z,100075.22
2022-11-20T04:44:59.735Z,100079.19
2022-11-20T04:47:27.640Z,100081.69
2022-11-20T04:49:55.884Z,100076.94
2022-11-20T04:52:23.804Z,100079.28
2022-11-20T04:54:54.012Z,100074.38
2022-11-20T04:57:21.942Z,100077.59
2022-11-20T04:59:50.088Z,100080.97
2022-11-20T05:02:18.021Z,100083.63
2022-11-20T05:04:46.399Z,100085.81
2022-11-20T05:07:14.443Z,100092.22
2022-11-20T05:09:43.150Z,100093.78
2022-11-20T05:12:11.326Z,100094.63
2022-11-20T05:14:39.489Z,100091.81
2022-11-20T05:17:07.621Z,100089.41
2022-11-20T05:19:36.831Z,100099.22
2022-11-20T05:22:06.655Z,100102.84
2022-11-20T05:24:35.970Z,100100.81
2022-11-20T05:27:03.859Z,100097.47
2022-11-20T05:29:32.144Z,100105.50
2022-11-20T05:32:00.036Z,100100.03
2022-11-20T05:34:28.180Z,100106.97
2022-11-20T05:36:55.992Z,100116.06
2022-11-20T05:39:24.266Z,100112.97
2022-11-20T05:42:12.429Z,100116.53
2022-11-20T05:44:43.129Z,100117.38
2022-11-20T05:47:11.750Z,100125.50
2022-11-20T05:49:39.969Z,100126.88
2022-11-20T05:52:07.831Z,100130.44
2022-11-20T05:54:37.298Z,100134.56
2022-11-20T05:57:06.200Z,100133.81
2022-11-20T05:59:34.341Z,100132.81
2022-11-20T06:02:02.190Z,100137.94
2022-11-20T06:04:30.402Z,100135.50
2022-11-20T06:06:58.238Z,100143.94
2022-11-20T06:09:26.440Z,100163.16
2022-11-20T06:11:54.395Z,100156.41
2022-11-20T06:14:22.540Z,100153.69
2022-11-20T06:16:50.993Z,100156.09
2022-11-20T06:19:19.299Z,100159.44
2022-11-20T06:21:50.723Z,100155.31
2022-11-20T06:24:19.290Z,100162.22
2022-11-20T06:26:47.190Z,100166.91
2022-11-20T06:29:15.429Z,100172.53
2022-11-20T06:31:43.792Z,100167.81
2022-11-20T06:34:12.110Z,100181.53
2022-11-20T06:36:41.058Z,100188.13
2022-11-20T06:39:09.572Z,100181.94
2022-11-20T06:41:38.453Z,100183.22
2022-11-20T06:44:06.984Z,100184.03
2022-11-20T06:46:35.112Z,100188.06
2022-11-20T06:49:03.953Z,100193.03
2022-11-20T06:51:31.942Z,100192.09
2022-11-20T06:54:02.184Z,100189.00
2022-11-20T06:56:30.382Z,100202.06
2022-11-20T06:58:59.913Z,100208.91
2022-11-20T07:01:28.038Z,100208.13
2022-11-20T07:03:56.573Z,100211.38
2022-11-20T07:06:24.583Z,100218.91
2022-11-20T07:08:54.067Z,100216.03
2022-11-20T07:11:22.148Z,100215.91
2022-11-20T07:13:52.396Z,100215.22
2022-11-20T07:16:20.405Z,100218.78
2022-11-20T07:18:50.701Z,100232.41
2022-11-20T07:21:19.133Z,100220.38
2022-11-20T07:23:48.008Z,100217.44
2022-11-20T07:26:16.034Z,100235.28
2022-11-20T07:28:47.166Z,100232.19
2022-11-20T07:31:19.059Z,100236.66
2022-11-20T07:33:49.594Z,100240.81
2022-11-20T07:36:17.602Z,100237.66
2022-11-20T07:38:45.996Z,100230.47
2022-11-20T07:41:14.025Z,100232.22
2022-11-20T07:43:45.967Z,100235.81
2022-11-20T07:46:13.939Z,100243.84
2022-11-20T07:48:42.374Z,100244.94
2022-11-20T07:51:10.510Z,100238.16
2022-11-20T07:53:38.843Z,100240.31
2022-11-20T07:56:07.501Z,100243.81
2022-11-20T07:58:35.852Z,100247.50
2022-11-20T08:01:06.431Z,100245.03
2022-11-20T08:03:34.923Z,100249.03
2022-11-20T08:06:03.824Z,100251.03
2022-11-20T08:08:33.816Z,100254.50
2022-11-20T08:11:21.847Z,100261.00
2022-11-20T08:14:08.606Z,100262.94
2022-11-20T08:16:36.768Z,100262.22
2022-11-20T08:19:05.814Z,100264.59
2022-11-20T08:21:38.157Z,100269.97
2022-11-20T08:24:09.142Z,100262.50
2022-11-20T08:26:39.573Z,100262.78
2022-11-20T08:29:08.795Z,100264.56
2022-11-20T08:31:37.188Z,100263.22
2022-11-20T08:34:25.543Z,100257.16
2022-11-20T08:36:53.603Z,100258.28
2022-11-20T08:39:22.322Z,100256.34
2022-11-20T08:41:50.582Z,100263.38
2022-11-20T08:44:18.892Z,100263.22
2022-11-20T08:46:48.303Z,100273.25
2022-11-20T08:49:17.855Z,100268.31
2022-11-20T08:51:46.511Z,100269.59
2022-11-20T08:54:15.006Z,100276.50
2022-11-20T08:56:43.163Z,100283.56
2022-11-20T08:59:36.794Z,100280.81
2022-11-20T09:01:59.782Z,100289.22
2022-11-20T09:04:28.192Z,100292.03
2022-11-20T09:06:56.304Z,100292.97
2022-11-20T09:09:25.126Z,100290.31
2022-11-20T09:11:54.283Z,100291.03
2022-11-20T09:14:22.804Z,100295.00
2022-11-20T09:16:50.933Z,100295.78
2022-11-20T09:19:34.994Z,100298.06
2022-11-20T09:22:04.536Z,100298.84
2022-11-20T09:24:33.054Z,100295.50
2022-11-20T09:27:04.163Z,100299.19
2022-11-20T09:29:32.853Z,100298.66
2022-11-20T09:32:00.973Z,100300.81
2022-11-20T09:34:29.378Z,100295.63
2022-11-20T09:36:58.499Z,100294.88
2022-11-20T09:39:28.591Z,100296.91
2022-11-20T09:42:18.790Z,100299.06
2022-11-20T09:45:00.035Z,100303.59
2022-11-20T09:47:43.344Z,100305.97
2022-11-20T09:50:51.347Z,100302.94
2022-11-20T09:53:38.576Z,100295.72
2022-11-20T09:56:12.393Z,100294.47
2022-11-20T09:58:53.012Z,100296.88
2022-11-20T10:01:31.647Z,100292.47
2022-11-20T10:04:15.335Z,100285.81
2022-11-20T10:07:30.668Z,100281.47
2022-11-20T10:09:56.363Z,100283.31
2022-11-20T10:12:50.335Z,100283.66
2022-11-20T10:15:29.827Z,100276.38
2022-11-20T10:18:12.143Z,100284.47
2022-11-20T10:21:05.653Z,100273.78
2022-11-20T10:24:04.253Z,100269.09
2022-11-20T10:26:59.703Z,100270.38
2022-11-20T10:29:35.602Z,100275.94
2022-11-20T10:32:12.630Z,100275.38
2022-11-20T10:34:59.992Z,100279.94
2022-11-20T10:37:30.339Z,100266.84
2022-11-20T10:40:26.042Z,100271.91
2022-11-20T10:43:01.294Z,100274.94
2022-11-20T10:45:41.582Z,100264.09
2022-11-20T10:48:16.994Z,100271.78
2022-11-20T10:51:01.080Z,100258.66
2022-11-20T10:53:52.369Z,100256.09
2022-11-20T10:56:26.738Z,100250.06
2022-11-20T10:59:27.048Z,100244.94
2022-11-20T11:01:55.230Z,100246.41
2022-11-20T11:04:42.328Z,100249.13
2022-11-20T11:07:32.390Z,100265.84
2022-11-20T11:10:01.140Z,100249.75
2022-11-20T11:12:30.183Z,100254.97
2022-11-20T11:14:58.985Z,100250.47
2022-11-20T11:17:30.579Z,100247.13
2022-11-20T11:20:17.429Z,100243.47
2022-11-20T11:22:50.573Z,100242.47
2022-11-20T11:25:53.120Z,100236.00
2022-11-20T11:28:26.809Z,100236.34
2022-11-20T11:30:55.703Z,100235.28
2022-11-20T11:33:27.655Z,100234.06
2022-11-20T11:35:58.542Z,100235.69
2022-11-20T11:38:41.959Z,100225.94
2022-11-20T11:41:27.630Z,100229.38
2022-11-20T11:44:36.761Z,100227.28
2022-11-20T11:47:07.630Z,100225.38
2022-11-20T11:49:36.480Z,100223.25
2022-11-20T11:52:18.481Z,100221.09
2022-11-20T11:55:01.049Z,100217.25
2022-11-20T11:57:42.379Z,100221.94
2022-11-20T12:00:15.001Z,100213.44
2022-11-20T12:02:45.923Z,100214.16
2022-11-20T12:05:27.440Z,100226.06
2022-11-20T12:08:14.052Z,100217.66
2022-11-20T12:10:48.141Z,100218.13
2022-11-20T12:13:31.889Z,100213.00
2022-11-20T12:16:02.050Z,100209.34
2022-11-20T12:18:30.521Z,100211.34
2022-11-20T12:21:24.341Z,100209.25
2022-11-20T12:24:03.984Z,100204.81
2022-11-20T12:26:50.641Z,100199.75
2022-11-20T12:29:21.485Z,100203.97
2022-11-20T12:32:19.850Z,100198.09
2022-11-20T12:35:11.765Z,100205.66
2022-11-20T12:37:46.078Z,100192.00
2022-11-20T12:40:34.071Z,100201.63
2022-11-20T12:43:41.650Z,100190.56
2022-11-20T12:46:12.520Z,100186.16
2022-11-20T12:48:56.050Z,100187.94
2022-11-20T12:51:43.262Z,100194.28
2022-11-20T12:54:32.633Z,100183.31
2022-11-20T12:57:27.673Z,100195.34
2022-11-20T13:00:08.486Z,100186.09
2022-11-20T13:03:00.364Z,100188.38
2022-11-20T13:05:47.376Z,100183.81
2022-11-20T13:08:29.904Z,100192.53
2022-11-20T13:10:58.063Z,100185.78
2022-11-20T13:13:57.883Z,100200.38
2022-11-20T13:16:39.874Z,100190.47
2022-11-20T13:19:13.554Z,100182.34
2022-11-20T13:21:52.815Z,100183.91
2022-11-20T13:24:20.884Z,100178.13
2022-11-20T13:27:00.603Z,100183.19
2022-11-20T13:29:28.732Z,100170.31
2022-11-20T13:32:23.232Z,100177.09
2022-11-20T13:34:58.082Z,100169.09
2022-11-20T13:37:30.031Z,100159.69
2022-11-20T13:40:10.863Z,100158.41
2022-11-20T13:42:52.323Z,100159.78
2022-11-20T13:45:27.646Z,100167.06
2022-11-20T13:47:58.913Z,100158.28
2022-11-20T13:50:39.321Z,100160.72
2022-11-20T13:53:32.514Z,100163.09
2022-11-20T13:56:43.521Z,100175.63
2022-11-20T13:59:41.699Z,100166.59
2022-11-20T14:02:19.344Z,100165.97
2022-11-20T14:04:51.005Z,100168.31
2022-11-20T14:07:21.753Z,100167.69
2022-11-20T14:09:56.017Z,100176.25
2022-11-20T14:12:33.120Z,100162.38
2022-11-20T14:15:01.289Z,100173.19
2022-11-20T14:17:36.722Z,100174.66
2022-11-20T14:20:13.847Z,100172.22
2022-11-20T14:22:52.772Z,100173.72
2022-11-20T14:25:26.113Z,100164.69
2022-11-20T14:27:55.413Z,100162.59
2022-11-20T14:30:30.543Z,100161.38
2022-11-20T14:33:03.841Z,100157.19
2022-11-20T14:35:35.531Z,100157.16
2022-11-20T14:38:05.603Z,100153.69
2022-11-20T14:40:37.903Z,100155.94
2022-11-20T14:43:23.412Z,100158.06
2022-11-20T14:46:01.712Z,100159.25
2022-11-20T14:48:42.177Z,100154.56
2022-11-20T14:51:29.539Z,100156.72
2022-11-20T14:53:57.516Z,100159.06
2022-11-20T14:56:26.352Z,100171.38
2022-11-20T14:58:59.303Z,100166.88
2022-11-20T15:01:28.913Z,100169.19
2022-11-20T15:04:09.012Z,100167.72
2022-11-20T15:06:39.686Z,100159.28
2022-11-20T15:09:15.362Z,100161.91
2022-11-20T15:12:04.402Z,100172.91
2022-11-20T15:14:33.861Z,100165.09
2022-11-20T15:17:02.886Z,100161.63
2022-11-20T15:19:30.802Z,100170.00
2022-11-20T15:22:00.274Z,100164.50
2022-11-20T15:24:28.245Z,100176.31
2022-11-20T15:26:56.447Z,100176.28
2022-11-20T15:29:25.101Z,100175.31
2022-11-20T15:31:55.496Z,100168.97
2022-11-20T15:34:23.764Z,100180.34
2022-11-20T15:36:52.623Z,100175.25
2022-11-20T15:39:20.487Z,100178.66
2022-11-20T15:41:48.701Z,100180.16
2022-11-20T15:44:16.501Z,100182.84
2022-11-20T15:46:46.388Z,100184.06
2022-11-20T15:49:19.938Z,100182.56
2022-11-20T15:51:50.947Z,100178.44
2022-11-20T15:54:24.230Z,100190.59
2022-11-20T15:56:55.427Z,100189.88
2022-11-20T15:59:23.325Z,100185.94
2022-11-20T16:01:51.601Z,100193.66
2022-11-20T16:04:19.784Z,100194.47
2022-11-20T16:06:48.031Z,100200.19
2022-11-20T16:09:15.895Z,100202.38
2022-11-20T16:11:44.346Z,100203.72
2022-11-20T16:14:31.115Z,100208.00
2022-11-20T16:16:59.323Z,100209.81
2022-11-20T16:19:27.185Z,100214.38
2022-11-20T16:22:01.164Z,100221.53
2022-11-20T16:24:31.460Z,100225.47
2022-11-20T16:27:00.276Z,100221.59
2022-11-20T16:29:28.683Z,100224.84
2022-11-20T16:31:58.165Z,100226.50
2022-11-20T16:34:26.165Z,100236.13
2022-11-20T16:36:54.625Z,100229.34
2022-11-20T16:39:24.100Z,100238.50
2022-11-20T16:41:52.574Z,100238.75
2022-11-20T16:44:21.912Z,100233.03
2022-11-20T16:46:50.617Z,100239.88
2022-11-20T16:49:18.634Z,100237.97
2022-11-20T16:51:47.246Z,100242.00
2022-11-20T16:54:20.546Z,100241.56
2022-11-20T16:56:51.199Z,100235.84
2022-11-20T16:59:19.400Z,100241.13
2022-11-20T17:01:47.743Z,100233.84
2022-11-20T17:04:16.238Z,100234.31
2022-11-20T17:06:45.245Z,100244.38
2022-11-20T17:09:14.016Z,100239.66
2022-11-20T17:11:43.531Z,100242.09
2022-11-20T17:14:12.324Z,100245.44
2022-11-20T17:16:40.805Z,100248.31
2022-11-20T17:19:09.982Z,100252.47
2022-11-20T17:21:41.376Z,100248.91
2022-11-20T17:24:12.134Z,100260.13
2022-11-20T17:26:42.378Z,100253.00
2022-11-20T17:29:18.766Z,100246.31
2022-11-20T17:31:47.655Z,100252.88
2022-11-20T17:34:16.573Z,100255.56
2022-11-20T17:36:46.035Z,100248.41
2022-11-20T17:39:15.969Z,100241.81
2022-11-20T17:41:44.758Z,100243.91
2022-11-20T17:44:13.465Z,100240.50
2022-11-20T17:46:42.840Z,100242.81
2022-11-20T17:49:10.738Z,100242.19
2022-11-20T17:51:39.031Z,100247.19
2022-11-20T17:54:09.602Z,100246.75
2022-11-20T17:56:56.478Z,100248.34
2022-11-20T17:59:24.445Z,100251.41
2022-11-20T18:01:52.916Z,100254.63
2022-11-20T18:04:21.445Z,100243.19
2022-11-20T18:06:51.411Z,100251.19
2022-11-20T18:09:19.526Z,100256.31
2022-11-20T18:11:47.816Z,100259.00
2022-11-20T18:14:26.752Z,100260.59
2022-11-20T18:17:01.481Z,100267.25
2022-11-20T18:19:33.171Z,100272.09
2022-11-20T18:22:04.327Z,100265.63
2022-11-20T18:24:33.159Z,100274.94
2022-11-20T18:27:01.431Z,100281.50
2022-11-20T18:29:31.478Z,100286.09
2022-11-20T18:32:00.806Z,100288.69
2022-11-20T18:34:29.637Z,100291.94
2022-11-20T18:36:59.196Z,100291.19
2022-11-20T18:39:27.095Z,100285.47
2022-11-20T18:42:14.527Z,100275.09
2022-11-20T18:44:51.728Z,100265.06
2022-11-20T18:47:32.735Z,100268.03
2022-11-20T18:50:02.365Z,100274.41
2022-11-20T18:52:35.678Z,100267.41
2022-11-20T18:55:05.332Z,100268.94
2022-11-20T18:57:34.747Z,100265.19
2022-11-20T19:00:08.404Z,100267.69
2022-11-20T19:02:42.303Z,100260.47
2022-11-20T19:05:14.996Z,100262.41
2022-11-20T19:07:43.386Z,100252.19
2022-11-20T19:10:11.389Z,100252.84
2022-11-20T19:12:39.584Z,100254.50
2022-11-20T19:15:07.792Z,100246.78
2022-11-20T19:17:36.030Z,100251.28
2022-11-20T19:20:04.087Z,100253.81
2022-11-20T19:22:32.247Z,100249.53
2022-11-20T19:25:00.179Z,100239.56
2022-11-20T19:27:28.391Z,100239.25
2022-11-20T19:30:03.574Z,100247.59
2022-11-20T19:32:33.216Z,100252.41
2022-11-20T19:35:01.065Z,100241.25
2022-11-20T19:37:29.340Z,100243.16
2022-11-20T19:39:59.948Z,100236.25
2022-11-20T19:42:28.118Z,100236.75
2022-11-20T19:44:56.265Z,100236.47
2022-11-20T19:47:35.397Z,100236.47
2022-11-20T19:50:13.404Z,100240.53
2022-11-20T19:52:42.206Z,100233.13
2022-11-20T19:55:11.348Z,100231.75
2022-11-20T19:57:39.597Z,100223.91
2022-11-20T20:00:08.404Z,100222.34
2022-11-20T20:02:37.955Z,100209.50
2022-11-20T20:05:06.347Z,100210.59
2022-11-20T20:07:34.721Z,100210.91
2022-11-20T20:10:02.566Z,100211.53
2022-11-20T20:12:31.791Z,100219.06
2022-11-20T20:14:59.716Z,100221.53
2022-11-20T20:17:28.992Z,100217.50
2022-11-20T20:19:57.020Z,100215.44
2022-11-20T20:22:25.269Z,100220.97
2022-11-20T20:24:53.383Z,100228.28
2022-11-20T20:27:22.116Z,100238.06
2022-11-20T20:29:52.541Z,100238.22
2022-11-20T20:32:21.867Z,100237.88
2022-11-20T20:34:49.844Z,100237.41
2022-11-20T20:37:18.042Z,100229.25
2022-11-20T20:39:46.358Z,100233.59
2022-11-20T20:42:14.698Z,100228.16
2022-11-20T20:45:02.266Z,100220.47
2022-11-20T20:47:41.434Z,100222.06
2022-11-20T20:50:12.052Z,100223.78
2022-11-20T20:52:40.876Z,100212.81
2022-11-20T20:55:11.578Z,100205.59
2022-11-20T20:57:43.151Z,100212.47
2022-11-20T21:00:11.504Z,100195.56
2022-11-20T21:02:39.753Z,100200.44
2022-11-20T21:05:08.752Z,100198.53
2022-11-20T21:07:59.346Z,100204.66
2022-11-20T21:10:32.235Z,100207.16
2022-11-20T21:13:02.474Z,100209.50
2022-11-20T21:15:30.377Z,100203.69
2022-11-20T21:17:58.586Z,100211.38
2022-11-20T21:20:46.236Z,100215.47
2022-11-20T21:23:15.616Z,100209.16
2022-11-20T21:25:43.694Z,100205.25
2022-11-20T21:28:15.625Z,100208.53
2022-11-20T21:30:47.005Z,100206.97
2022-11-20T21:33:15.282Z,100201.38
2022-11-20T21:35:43.181Z,100206.69
2022-11-20T21:38:11.423Z,100213.25
2022-11-20T21:40:39.305Z,100211.22
2022-11-20T21:43:08.305Z,100214.69
2022-11-20T21:45:36.187Z,100217.94
2022-11-20T21:48:04.734Z,100226.38
2022-11-20T21:50:35.395Z,100226.03
2022-11-20T21:53:03.648Z,100237.78
2022-11-20T21:55:31.490Z,100242.38
2022-11-20T21:57:59.895Z,100243.31
2022-11-20T22:00:27.705Z,100249.06
2022-11-20T22:02:55.967Z,100245.38
2022-11-20T22:05:23.815Z,100234.69
2022-11-20T22:07:53.144Z,100233.41
2022-11-20T22:10:21.013Z,100244.34
2022-11-20T22:12:49.235Z,100246.56
2022-11-20T22:15:33.057Z,100246.56
2022-11-20T22:18:14.165Z,100252.84
2022-11-20T22:20:42.380Z,100264.72
2022-11-20T22:23:11.729Z,100256.97
2022-11-20T22:25:39.700Z,100258.50
2022-11-20T22:28:07.845Z,100260.31
2022-11-20T22:30:35.646Z,100260.91
2022-11-20T22:33:06.716Z,100264.72
2022-11-20T22:35:38.469Z,100265.81
2022-11-20T22:38:08.200Z,100266.84
2022-11-20T22:40:36.210Z,100275.34
2022-11-20T22:43:04.538Z,100266.69
2022-11-20T22:45:32.707Z,100261.84
2022-11-20T22:48:01.028Z,100264.69
2022-11-20T22:50:29.755Z,100259.84
2022-11-20T22:52:58.239Z,100275.06
2022-11-20T22:55:26.237Z,100269.81
2022-11-20T22:57:54.538Z,100265.97
2022-11-20T23:00:22.683Z,100263.91
2022-11-20T23:02:51.058Z,100264.13
2022-11-20T23:05:19.028Z,100266.78
2022-11-20T23:07:47.402Z,100273.63
2022-11-20T23:10:15.475Z,100268.38
2022-11-20T23:12:43.859Z,100266.50
2022-11-20T23:15:11.937Z,100272.09
2022-11-20T23:17:40.209Z,100274.06
2022-11-20T23:20:10.210Z,100270.47
2022-11-20T23:22:39.658Z,100257.91
2022-11-20T23:25:08.422Z,100263.81
2022-11-20T23:27:38.087Z,100258.94
2022-11-20T23:30:06.760Z,100257.44
2022-11-20T23:32:36.351Z,100248.31
2022-11-20T23:35:04.447Z,100241.19
2022-11-20T23:37:32.806Z,100243.59
2022-11-20T23:40:00.728Z,100233.28
2022-11-20T23:42:29.045Z,100220.78
2022-11-20T23:44:57.097Z,100214.63
2022-11-20T23:47:24.900Z,100222.31
2022-11-20T23:49:53.763Z,100215.41
2022-11-20T23:52:23.339Z,100216.06
2022-11-20T23:54:53.009Z,100215.75
2022-11-20T23:57:20.988Z,100203.53
2022-11-20T23:59:50.549Z,100204.09
